sensor_id;sensor_type;location;lat;lon;timestamp;P1;durP1;ratioP1;P2;durP2;ratioP2
64714;SDS011;51144;53.002;6.506;2022-08-20T00:00:36;11.57;;;7.55;;
64714;SDS011;51144;53.002;6.506;2022-08-20T00:03:07;9.10;;;6.72;;
64714;SDS011;51144;53.002;6.506;2022-08-20T00:05:38;8.02;;;6.43;;
64714;SDS011;51144;53.002;6.506;2022-08-20T00:08:06;9.75;;;7.22;;
64714;SDS011;51144;53.002;6.506;2022-08-20T00:10:33;8.80;;;6.70;;
64714;SDS011;51144;53.002;6.506;2022-08-20T00:13:01;8.13;;;6.72;;
64714;SDS011;51144;53.002;6.506;2022-08-20T00:15:30;12.13;;;6.70;;
64714;SDS011;51144;53.002;6.506;2022-08-20T00:17:57;13.38;;;6.47;;
64714;SDS011;51144;53.002;6.506;2022-08-20T00:20:26;9.68;;;6.38;;
64714;SDS011;51144;53.002;6.506;2022-08-20T00:22:54;9.27;;;6.80;;
64714;SDS011;51144;53.002;6.506;2022-08-20T00:25:21;12.30;;;6.55;;
64714;SDS011;51144;53.002;6.506;2022-08-20T00:27:47;11.75;;;6.65;;
64714;SDS011;51144;53.002;6.506;2022-08-20T00:30:13;9.88;;;6.65;;
64714;SDS011;51144;53.002;6.506;2022-08-20T00:32:41;11.00;;;6.63;;
64714;SDS011;51144;53.002;6.506;2022-08-20T00:35:07;12.45;;;7.45;;
64714;SDS011;51144;53.002;6.506;2022-08-20T00:37:33;12.15;;;6.60;;
64714;SDS011;51144;53.002;6.506;2022-08-20T00:39:59;12.75;;;6.95;;
64714;SDS011;51144;53.002;6.506;2022-08-20T00:42:25;7.88;;;6.57;;
64714;SDS011;51144;53.002;6.506;2022-08-20T00:44:50;9.10;;;6.35;;
64714;SDS011;51144;53.002;6.506;2022-08-20T00:47:16;15.20;;;7.18;;
64714;SDS011;51144;53.002;6.506;2022-08-20T00:49:42;8.90;;;7.38;;
64714;SDS011;51144;53.002;6.506;2022-08-20T00:52:15;12.35;;;6.97;;
64714;SDS011;51144;53.002;6.506;2022-08-20T00:54:44;8.30;;;7.22;;
64714;SDS011;51144;53.002;6.506;2022-08-20T00:57:18;13.65;;;6.75;;
64714;SDS011;51144;53.002;6.506;2022-08-20T00:59:54;11.50;;;6.57;;
64714;SDS011;51144;53.002;6.506;2022-08-20T01:02:22;13.45;;;6.72;;
64714;SDS011;51144;53.002;6.506;2022-08-20T01:04:51;11.13;;;6.35;;
64714;SDS011;51144;53.002;6.506;2022-08-20T01:07:21;14.00;;;7.05;;
64714;SDS011;51144;53.002;6.506;2022-08-20T01:09:59;11.45;;;6.05;;
64714;SDS011;51144;53.002;6.506;2022-08-20T01:12:27;8.57;;;5.63;;
64714;SDS011;51144;53.002;6.506;2022-08-20T01:14:54;11.77;;;6.35;;
64714;SDS011;51144;53.002;6.506;2022-08-20T01:17:24;12.25;;;6.10;;
64714;SDS011;51144;53.002;6.506;2022-08-20T01:22:20;13.18;;;7.10;;
64714;SDS011;51144;53.002;6.506;2022-08-20T01:28:04;11.27;;;6.88;;
64714;SDS011;51144;53.002;6.506;2022-08-20T01:30:30;11.45;;;6.45;;
64714;SDS011;51144;53.002;6.506;2022-08-20T01:32:57;12.98;;;6.28;;
64714;SDS011;51144;53.002;6.506;2022-08-20T01:35:24;10.18;;;6.43;;
64714;SDS011;51144;53.002;6.506;2022-08-20T01:37:50;17.35;;;6.10;;
64714;SDS011;51144;53.002;6.506;2022-08-20T01:40:18;8.00;;;6.05;;
64714;SDS011;51144;53.002;6.506;2022-08-20T01:43:18;17.20;;;6.18;;
64714;SDS011;51144;53.002;6.506;2022-08-20T01:45:44;9.98;;;5.32;;
64714;SDS011;51144;53.002;6.506;2022-08-20T01:48:09;12.70;;;6.55;;
64714;SDS011;51144;53.002;6.506;2022-08-20T01:50:38;13.77;;;6.03;;
64714;SDS011;51144;53.002;6.506;2022-08-20T01:53:10;13.07;;;5.85;;
64714;SDS011;51144;53.002;6.506;2022-08-20T01:55:42;10.10;;;5.68;;
64714;SDS011;51144;53.002;6.506;2022-08-20T01:58:08;16.98;;;5.60;;
64714;SDS011;51144;53.002;6.506;2022-08-20T02:00:35;17.88;;;6.88;;
64714;SDS011;51144;53.002;6.506;2022-08-20T02:03:00;14.98;;;6.18;;
64714;SDS011;51144;53.002;6.506;2022-08-20T02:05:27;16.27;;;5.88;;
64714;SDS011;51144;53.002;6.506;2022-08-20T02:07:53;9.60;;;5.20;;
64714;SDS011;51144;53.002;6.506;2022-08-20T02:10:19;14.93;;;5.47;;
64714;SDS011;51144;53.002;6.506;2022-08-20T02:12:45;10.55;;;5.55;;
64714;SDS011;51144;53.002;6.506;2022-08-20T02:15:11;10.80;;;4.63;;
64714;SDS011;51144;53.002;6.506;2022-08-20T02:17:38;12.07;;;5.40;;
64714;SDS011;51144;53.002;6.506;2022-08-20T02:20:12;11.80;;;5.72;;
64714;SDS011;51144;53.002;6.506;2022-08-20T02:22:50;9.85;;;5.28;;
64714;SDS011;51144;53.002;6.506;2022-08-20T02:25:20;8.60;;;4.45;;
64714;SDS011;51144;53.002;6.506;2022-08-20T02:27:47;11.15;;;5.13;;
64714;SDS011;51144;53.002;6.506;2022-08-20T02:30:21;10.45;;;5.15;;
64714;SDS011;51144;53.002;6.506;2022-08-20T02:32:50;9.20;;;5.40;;
64714;SDS011;51144;53.002;6.506;2022-08-20T02:35:16;12.52;;;5.00;;
64714;SDS011;51144;53.002;6.506;2022-08-20T02:37:43;13.35;;;5.88;;
64714;SDS011;51144;53.002;6.506;2022-08-20T02:40:11;9.57;;;5.03;;
64714;SDS011;51144;53.002;6.506;2022-08-20T02:42:39;15.23;;;5.82;;
64714;SDS011;51144;53.002;6.506;2022-08-20T02:45:07;10.55;;;5.13;;
64714;SDS011;51144;53.002;6.506;2022-08-20T02:47:39;7.38;;;4.72;;
64714;SDS011;51144;53.002;6.506;2022-08-20T02:50:05;14.45;;;5.43;;
64714;SDS011;51144;53.002;6.506;2022-08-20T02:52:32;9.00;;;5.60;;
64714;SDS011;51144;53.002;6.506;2022-08-20T02:54:57;12.45;;;5.38;;
64714;SDS011;51144;53.002;6.506;2022-08-20T02:57:25;6.72;;;5.00;;
64714;SDS011;51144;53.002;6.506;2022-08-20T02:59:52;15.77;;;5.43;;
64714;SDS011;51144;53.002;6.506;2022-08-20T03:02:18;7.97;;;4.38;;
64714;SDS011;51144;53.002;6.506;2022-08-20T03:04:44;9.82;;;5.32;;
64714;SDS011;51144;53.002;6.506;2022-08-20T03:07:10;12.23;;;4.95;;
64714;SDS011;51144;53.002;6.506;2022-08-20T03:09:36;11.90;;;5.50;;
64714;SDS011;51144;53.002;6.506;2022-08-20T03:12:03;10.07;;;5.50;;
64714;SDS011;51144;53.002;6.506;2022-08-20T03:14:29;12.80;;;5.60;;
64714;SDS011;51144;53.002;6.506;2022-08-20T03:16:55;16.65;;;5.88;;
64714;SDS011;51144;53.002;6.506;2022-08-20T03:19:20;10.32;;;5.40;;
64714;SDS011;51144;53.002;6.506;2022-08-20T03:21:47;13.75;;;6.85;;
64714;SDS011;51144;53.002;6.506;2022-08-20T03:24:13;11.82;;;5.90;;
64714;SDS011;51144;53.002;6.506;2022-08-20T03:26:38;8.30;;;4.68;;
64714;SDS011;51144;53.002;6.506;2022-08-20T03:29:04;12.52;;;5.57;;
64714;SDS011;51144;53.002;6.506;2022-08-20T03:31:29;15.75;;;6.25;;
64714;SDS011;51144;53.002;6.506;2022-08-20T03:33:55;15.18;;;5.40;;
64714;SDS011;51144;53.002;6.506;2022-08-20T03:36:21;16.92;;;5.93;;
64714;SDS011;51144;53.002;6.506;2022-08-20T03:38:48;10.27;;;5.72;;
64714;SDS011;51144;53.002;6.506;2022-08-20T03:41:13;10.65;;;5.63;;
64714;SDS011;51144;53.002;6.506;2022-08-20T03:43:40;11.65;;;6.00;;
64714;SDS011;51144;53.002;6.506;2022-08-20T03:46:06;16.77;;;6.28;;
64714;SDS011;51144;53.002;6.506;2022-08-20T03:48:33;18.20;;;5.82;;
64714;SDS011;51144;53.002;6.506;2022-08-20T03:50:58;12.32;;;5.28;;
64714;SDS011;51144;53.002;6.506;2022-08-20T03:53:25;12.48;;;5.57;;
64714;SDS011;51144;53.002;6.506;2022-08-20T03:55:55;13.52;;;6.07;;
64714;SDS011;51144;53.002;6.506;2022-08-20T03:58:24;12.05;;;5.82;;
64714;SDS011;51144;53.002;6.506;2022-08-20T04:00:51;9.10;;;5.15;;
64714;SDS011;51144;53.002;6.506;2022-08-20T04:03:17;10.05;;;5.28;;
64714;SDS011;51144;53.002;6.506;2022-08-20T04:05:43;13.88;;;6.07;;
64714;SDS011;51144;53.002;6.506;2022-08-20T04:08:11;10.52;;;4.55;;
64714;SDS011;51144;53.002;6.506;2022-08-20T04:10:42;16.10;;;5.45;;
64714;SDS011;51144;53.002;6.506;2022-08-20T04:13:10;13.18;;;4.90;;
64714;SDS011;51144;53.002;6.506;2022-08-20T04:15:36;12.40;;;4.10;;
64714;SDS011;51144;53.002;6.506;2022-08-20T04:18:04;13.77;;;4.90;;
64714;SDS011;51144;53.002;6.506;2022-08-20T04:20:31;9.85;;;4.10;;
64714;SDS011;51144;53.002;6.506;2022-08-20T04:22:58;8.40;;;3.70;;
64714;SDS011;51144;53.002;6.506;2022-08-20T04:25:24;11.27;;;3.92;;
64714;SDS011;51144;53.002;6.506;2022-08-20T04:27:50;8.98;;;3.58;;
64714;SDS011;51144;53.002;6.506;2022-08-20T04:30:17;12.18;;;3.28;;
64714;SDS011;51144;53.002;6.506;2022-08-20T04:32:44;9.07;;;3.90;;
64714;SDS011;51144;53.002;6.506;2022-08-20T04:35:11;9.88;;;3.05;;
64714;SDS011;51144;53.002;6.506;2022-08-20T04:37:42;9.40;;;3.50;;
64714;SDS011;51144;53.002;6.506;2022-08-20T04:40:17;11.77;;;4.50;;
64714;SDS011;51144;53.002;6.506;2022-08-20T04:43:02;14.50;;;3.58;;
64714;SDS011;51144;53.002;6.506;2022-08-20T04:45:31;9.05;;;3.50;;
64714;SDS011;51144;53.002;6.506;2022-08-20T04:47:59;7.95;;;4.13;;
64714;SDS011;51144;53.002;6.506;2022-08-20T04:50:28;8.65;;;3.45;;
64714;SDS011;51144;53.002;6.506;2022-08-20T04:52:58;11.07;;;4.18;;
64714;SDS011;51144;53.002;6.506;2022-08-20T04:55:23;12.00;;;4.18;;
64714;SDS011;51144;53.002;6.506;2022-08-20T04:57:49;10.98;;;4.15;;
64714;SDS011;51144;53.002;6.506;2022-08-20T05:00:16;12.20;;;3.97;;
64714;SDS011;51144;53.002;6.506;2022-08-20T05:02:42;9.02;;;3.97;;
64714;SDS011;51144;53.002;6.506;2022-08-20T05:05:08;8.13;;;3.50;;
64714;SDS011;51144;53.002;6.506;2022-08-20T05:07:41;11.10;;;3.30;;
64714;SDS011;51144;53.002;6.506;2022-08-20T05:10:10;10.40;;;3.33;;
64714;SDS011;51144;53.002;6.506;2022-08-20T05:12:38;10.52;;;3.63;;
64714;SDS011;51144;53.002;6.506;2022-08-20T05:15:05;11.60;;;2.63;;
64714;SDS011;51144;53.002;6.506;2022-08-20T05:17:31;13.57;;;3.58;;
64714;SDS011;51144;53.002;6.506;2022-08-20T05:19:56;7.00;;;2.67;;
64714;SDS011;51144;53.002;6.506;2022-08-20T05:22:23;12.82;;;2.78;;
64714;SDS011;51144;53.002;6.506;2022-08-20T05:24:49;7.65;;;2.80;;
64714;SDS011;51144;53.002;6.506;2022-08-20T05:27:17;8.30;;;2.55;;
64714;SDS011;51144;53.002;6.506;2022-08-20T05:29:43;12.73;;;3.25;;
64714;SDS011;51144;53.002;6.506;2022-08-20T05:32:09;8.35;;;3.65;;
64714;SDS011;51144;53.002;6.506;2022-08-20T05:34:36;13.18;;;4.00;;
64714;SDS011;51144;53.002;6.506;2022-08-20T05:37:02;7.35;;;3.28;;
64714;SDS011;51144;53.002;6.506;2022-08-20T05:39:28;10.63;;;3.67;;
64714;SDS011;51144;53.002;6.506;2022-08-20T05:41:53;9.10;;;3.30;;
64714;SDS011;51144;53.002;6.506;2022-08-20T05:44:19;12.77;;;3.28;;
64714;SDS011;51144;53.002;6.506;2022-08-20T05:46:45;10.18;;;2.53;;
64714;SDS011;51144;53.002;6.506;2022-08-20T05:49:13;12.45;;;3.20;;
64714;SDS011;51144;53.002;6.506;2022-08-20T05:51:41;8.13;;;3.13;;
64714;SDS011;51144;53.002;6.506;2022-08-20T05:54:07;5.82;;;2.80;;
64714;SDS011;51144;53.002;6.506;2022-08-20T05:56:33;14.07;;;2.55;;
64714;SDS011;51144;53.002;6.506;2022-08-20T05:59:00;7.57;;;2.45;;
64714;SDS011;51144;53.002;6.506;2022-08-20T06:01:28;9.80;;;2.17;;
64714;SDS011;51144;53.002;6.506;2022-08-20T06:03:54;9.07;;;2.28;;
64714;SDS011;51144;53.002;6.506;2022-08-20T06:06:39;6.57;;;2.00;;
64714;SDS011;51144;53.002;6.506;2022-08-20T06:09:05;5.25;;;1.55;;
64714;SDS011;51144;53.002;6.506;2022-08-20T06:11:30;6.65;;;1.58;;
64714;SDS011;51144;53.002;6.506;2022-08-20T06:13:57;8.60;;;1.55;;
64714;SDS011;51144;53.002;6.506;2022-08-20T06:16:23;5.65;;;2.00;;
64714;SDS011;51144;53.002;6.506;2022-08-20T06:18:48;7.32;;;1.83;;
64714;SDS011;51144;53.002;6.506;2022-08-20T06:21:14;12.23;;;2.08;;
64714;SDS011;51144;53.002;6.506;2022-08-20T06:23:39;6.45;;;1.63;;
64714;SDS011;51144;53.002;6.506;2022-08-20T06:26:06;7.65;;;1.77;;
64714;SDS011;51144;53.002;6.506;2022-08-20T06:28:33;8.38;;;1.50;;
64714;SDS011;51144;53.002;6.506;2022-08-20T06:31:02;8.98;;;1.20;;
64714;SDS011;51144;53.002;6.506;2022-08-20T06:33:28;10.63;;;1.30;;
64714;SDS011;51144;53.002;6.506;2022-08-20T06:35:53;12.45;;;1.63;;
64714;SDS011;51144;53.002;6.506;2022-08-20T06:38:19;6.13;;;1.52;;
64714;SDS011;51144;53.002;6.506;2022-08-20T06:40:45;5.50;;;1.17;;
64714;SDS011;51144;53.002;6.506;2022-08-20T06:43:11;8.15;;;1.08;;
64714;SDS011;51144;53.002;6.506;2022-08-20T06:45:39;5.72;;;0.70;;
64714;SDS011;51144;53.002;6.506;2022-08-20T06:48:06;5.60;;;1.23;;
64714;SDS011;51144;53.002;6.506;2022-08-20T06:50:36;4.07;;;0.70;;
64714;SDS011;51144;53.002;6.506;2022-08-20T06:53:11;5.43;;;0.77;;
64714;SDS011;51144;53.002;6.506;2022-08-20T06:55:39;4.45;;;0.70;;
64714;SDS011;51144;53.002;6.506;2022-08-20T06:58:08;7.70;;;0.90;;
64714;SDS011;51144;53.002;6.506;2022-08-20T07:00:36;7.20;;;0.65;;
64714;SDS011;51144;53.002;6.506;2022-08-20T07:03:03;9.20;;;1.30;;
64714;SDS011;51144;53.002;6.506;2022-08-20T07:05:31;9.48;;;1.42;;
64714;SDS011;51144;53.002;6.506;2022-08-20T07:07:59;5.68;;;0.60;;
64714;SDS011;51144;53.002;6.506;2022-08-20T07:10:26;6.03;;;0.85;;
64714;SDS011;51144;53.002;6.506;2022-08-20T07:12:52;5.10;;;0.30;;
64714;SDS011;51144;53.002;6.506;2022-08-20T07:15:19;7.82;;;0.40;;
64714;SDS011;51144;53.002;6.506;2022-08-20T07:17:49;7.70;;;0.32;;
64714;SDS011;51144;53.002;6.506;2022-08-20T07:20:17;6.75;;;1.35;;
64714;SDS011;51144;53.002;6.506;2022-08-20T07:22:42;3.67;;;0.60;;
64714;SDS011;51144;53.002;6.506;2022-08-20T07:25:10;7.90;;;0.77;;
64714;SDS011;51144;53.002;6.506;2022-08-20T07:27:38;5.75;;;0.95;;
64714;SDS011;51144;53.002;6.506;2022-08-20T07:30:05;7.40;;;0.70;;
64714;SDS011;51144;53.002;6.506;2022-08-20T07:32:51;6.57;;;1.13;;
64714;SDS011;51144;53.002;6.506;2022-08-20T07:35:17;4.95;;;0.50;;
64714;SDS011;51144;53.002;6.506;2022-08-20T07:37:44;4.82;;;0.45;;
64714;SDS011;51144;53.002;6.506;2022-08-20T07:40:16;6.57;;;0.55;;
64714;SDS011;51144;53.002;6.506;2022-08-20T07:42:46;3.95;;;0.35;;
64714;SDS011;51144;53.002;6.506;2022-08-20T07:45:14;5.28;;;0.75;;
64714;SDS011;51144;53.002;6.506;2022-08-20T07:47:43;9.95;;;1.08;;
64714;SDS011;51144;53.002;6.506;2022-08-20T07:50:10;2.97;;;0.35;;
64714;SDS011;51144;53.002;6.506;2022-08-20T07:52:37;6.15;;;0.73;;
64714;SDS011;51144;53.002;6.506;2022-08-20T07:55:03;2.33;;;0.30;;
64714;SDS011;51144;53.002;6.506;2022-08-20T07:57:35;4.00;;;0.38;;
64714;SDS011;51144;53.002;6.506;2022-08-20T08:00:02;4.30;;;0.30;;
64714;SDS011;51144;53.002;6.506;2022-08-20T08:02:29;9.95;;;0.90;;
64714;SDS011;51144;53.002;6.506;2022-08-20T08:04:55;4.15;;;0.25;;
64714;SDS011;51144;53.002;6.506;2022-08-20T08:07:21;5.60;;;0.40;;
64714;SDS011;51144;53.002;6.506;2022-08-20T08:09:47;4.22;;;0.63;;
64714;SDS011;51144;53.002;6.506;2022-08-20T08:12:14;5.30;;;0.20;;
64714;SDS011;51144;53.002;6.506;2022-08-20T08:14:41;5.90;;;0.57;;
64714;SDS011;51144;53.002;6.506;2022-08-20T08:17:09;6.75;;;0.52;;
64714;SDS011;51144;53.002;6.506;2022-08-20T08:19:36;5.93;;;0.63;;
64714;SDS011;51144;53.002;6.506;2022-08-20T08:22:06;3.90;;;0.60;;
64714;SDS011;51144;53.002;6.506;2022-08-20T08:24:35;5.90;;;0.28;;
64714;SDS011;51144;53.002;6.506;2022-08-20T08:27:01;2.72;;;0.43;;
64714;SDS011;51144;53.002;6.506;2022-08-20T08:29:27;6.18;;;0.52;;
64714;SDS011;51144;53.002;6.506;2022-08-20T08:31:53;9.23;;;1.52;;
64714;SDS011;51144;53.002;6.506;2022-08-20T08:34:19;6.00;;;0.30;;
64714;SDS011;51144;53.002;6.506;2022-08-20T08:36:46;4.45;;;0.40;;
64714;SDS011;51144;53.002;6.506;2022-08-20T08:39:11;5.05;;;0.60;;
64714;SDS011;51144;53.002;6.506;2022-08-20T08:41:41;5.03;;;0.30;;
64714;SDS011;51144;53.002;6.506;2022-08-20T08:44:19;5.07;;;0.57;;
64714;SDS011;51144;53.002;6.506;2022-08-20T08:46:57;6.10;;;0.55;;
64714;SDS011;51144;53.002;6.506;2022-08-20T08:49:27;5.10;;;0.60;;
64714;SDS011;51144;53.002;6.506;2022-08-20T08:51:58;5.30;;;0.32;;
64714;SDS011;51144;53.002;6.506;2022-08-20T08:54:29;3.78;;;0.40;;
64714;SDS011;51144;53.002;6.506;2022-08-20T08:56:57;4.97;;;0.30;;
64714;SDS011;51144;53.002;6.506;2022-08-20T08:59:24;3.50;;;0.50;;
64714;SDS011;51144;53.002;6.506;2022-08-20T09:01:54;4.78;;;0.38;;
64714;SDS011;51144;53.002;6.506;2022-08-20T09:04:22;4.85;;;0.38;;
64714;SDS011;51144;53.002;6.506;2022-08-20T09:06:54;3.45;;;0.40;;
64714;SDS011;51144;53.002;6.506;2022-08-20T09:09:21;3.33;;;0.50;;
64714;SDS011;51144;53.002;6.506;2022-08-20T09:12:00;4.88;;;0.32;;
64714;SDS011;51144;53.002;6.506;2022-08-20T09:14:31;4.00;;;0.40;;
64714;SDS011;51144;53.002;6.506;2022-08-20T09:17:00;3.78;;;0.20;;
64714;SDS011;51144;53.002;6.506;2022-08-20T09:19:26;5.38;;;0.57;;
64714;SDS011;51144;53.002;6.506;2022-08-20T09:21:52;5.63;;;0.45;;
64714;SDS011;51144;53.002;6.506;2022-08-20T09:24:18;11.32;;;0.65;;
64714;SDS011;51144;53.002;6.506;2022-08-20T09:26:44;7.25;;;0.70;;
64714;SDS011;51144;53.002;6.506;2022-08-20T09:29:09;5.53;;;0.20;;
64714;SDS011;51144;53.002;6.506;2022-08-20T09:31:35;6.25;;;0.38;;
64714;SDS011;51144;53.002;6.506;2022-08-20T09:34:01;6.53;;;0.95;;
64714;SDS011;51144;53.002;6.506;2022-08-20T09:36:27;2.80;;;0.20;;
64714;SDS011;51144;53.002;6.506;2022-08-20T09:38:52;4.25;;;0.30;;
64714;SDS011;51144;53.002;6.506;2022-08-20T09:41:18;4.78;;;0.30;;
64714;SDS011;51144;53.002;6.506;2022-08-20T09:43:44;4.32;;;0.50;;
64714;SDS011;51144;53.002;6.506;2022-08-20T09:46:09;5.82;;;0.75;;
64714;SDS011;51144;53.002;6.506;2022-08-20T09:48:35;3.92;;;0.28;;
64714;SDS011;51144;53.002;6.506;2022-08-20T09:51:01;3.22;;;0.20;;
64714;SDS011;51144;53.002;6.506;2022-08-20T09:53:26;6.07;;;0.40;;
64714;SDS011;51144;53.002;6.506;2022-08-20T09:55:53;4.57;;;0.30;;
64714;SDS011;51144;53.002;6.506;2022-08-20T09:58:21;5.30;;;0.30;;
64714;SDS011;51144;53.002;6.506;2022-08-20T10:00:51;3.50;;;0.20;;
64714;SDS011;51144;53.002;6.506;2022-08-20T10:03:17;3.80;;;0.30;;
64714;SDS011;51144;53.002;6.506;2022-08-20T10:05:43;6.80;;;0.55;;
64714;SDS011;51144;53.002;6.506;2022-08-20T10:08:09;2.72;;;0.40;;
64714;SDS011;51144;53.002;6.506;2022-08-20T10:10:36;4.43;;;0.32;;
64714;SDS011;51144;53.002;6.506;2022-08-20T10:13:01;9.18;;;0.30;;
64714;SDS011;51144;53.002;6.506;2022-08-20T10:15:27;3.97;;;0.30;;
64714;SDS011;51144;53.002;6.506;2022-08-20T10:17:53;4.57;;;0.82;;
64714;SDS011;51144;53.002;6.506;2022-08-20T10:20:21;6.97;;;0.50;;
64714;SDS011;51144;53.002;6.506;2022-08-20T10:22:47;2.53;;;0.40;;
64714;SDS011;51144;53.002;6.506;2022-08-20T10:25:13;4.00;;;0.43;;
64714;SDS011;51144;53.002;6.506;2022-08-20T10:27:40;8.38;;;0.80;;
64714;SDS011;51144;53.002;6.506;2022-08-20T10:30:06;3.80;;;0.38;;
64714;SDS011;51144;53.002;6.506;2022-08-20T10:32:32;4.80;;;0.50;;
64714;SDS011;51144;53.002;6.506;2022-08-20T10:34:58;7.05;;;0.60;;
64714;SDS011;51144;53.002;6.506;2022-08-20T10:37:24;4.82;;;0.30;;
64714;SDS011;51144;53.002;6.506;2022-08-20T10:39:50;6.88;;;0.68;;
64714;SDS011;51144;53.002;6.506;2022-08-20T10:42:16;3.90;;;0.32;;
64714;SDS011;51144;53.002;6.506;2022-08-20T10:44:41;4.97;;;0.52;;
64714;SDS011;51144;53.002;6.506;2022-08-20T10:47:21;3.75;;;0.30;;
64714;SDS011;51144;53.002;6.506;2022-08-20T10:49:49;5.68;;;1.08;;
64714;SDS011;51144;53.002;6.506;2022-08-20T10:52:16;5.45;;;0.70;;
64714;SDS011;51144;53.002;6.506;2022-08-20T10:54:42;4.97;;;0.88;;
64714;SDS011;51144;53.002;6.506;2022-08-20T10:57:11;5.70;;;0.50;;
64714;SDS011;51144;53.002;6.506;2022-08-20T10:59:40;5.47;;;0.82;;
64714;SDS011;51144;53.002;6.506;2022-08-20T11:02:07;6.43;;;0.52;;
64714;SDS011;51144;53.002;6.506;2022-08-20T11:04:32;3.92;;;0.77;;
64714;SDS011;51144;53.002;6.506;2022-08-20T11:07:08;4.60;;;0.50;;
64714;SDS011;51144;53.002;6.506;2022-08-20T11:09:38;2.67;;;0.63;;
64714;SDS011;51144;53.002;6.506;2022-08-20T11:12:04;3.20;;;0.38;;
64714;SDS011;51144;53.002;6.506;2022-08-20T11:14:30;3.83;;;0.47;;
64714;SDS011;51144;53.002;6.506;2022-08-20T11:16:57;3.50;;;0.40;;
64714;SDS011;51144;53.002;6.506;2022-08-20T11:19:23;3.35;;;0.47;;
64714;SDS011;51144;53.002;6.506;2022-08-20T11:21:49;4.85;;;0.47;;
64714;SDS011;51144;53.002;6.506;2022-08-20T11:24:15;2.50;;;0.50;;
64714;SDS011;51144;53.002;6.506;2022-08-20T11:26:40;4.60;;;0.40;;
64714;SDS011;51144;53.002;6.506;2022-08-20T11:29:06;3.47;;;0.32;;
64714;SDS011;51144;53.002;6.506;2022-08-20T11:31:31;3.00;;;0.38;;
64714;SDS011;51144;53.002;6.506;2022-08-20T11:33:57;5.40;;;0.30;;
64714;SDS011;51144;53.002;6.506;2022-08-20T11:36:22;4.82;;;1.00;;
64714;SDS011;51144;53.002;6.506;2022-08-20T11:38:50;4.47;;;0.68;;
64714;SDS011;51144;53.002;6.506;2022-08-20T11:41:16;5.35;;;1.13;;
64714;SDS011;51144;53.002;6.506;2022-08-20T11:43:42;4.10;;;0.30;;
64714;SDS011;51144;53.002;6.506;2022-08-20T11:46:08;3.58;;;0.70;;
64714;SDS011;51144;53.002;6.506;2022-08-20T11:48:33;3.83;;;0.98;;
64714;SDS011;51144;53.002;6.506;2022-08-20T11:50:59;8.75;;;1.50;;
64714;SDS011;51144;53.002;6.506;2022-08-20T11:53:25;3.15;;;0.40;;
64714;SDS011;51144;53.002;6.506;2022-08-20T11:55:50;4.57;;;0.52;;
64714;SDS011;51144;53.002;6.506;2022-08-20T11:58:16;5.05;;;0.60;;
64714;SDS011;51144;53.002;6.506;2022-08-20T12:00:41;2.88;;;0.40;;
64714;SDS011;51144;53.002;6.506;2022-08-20T12:03:07;5.10;;;0.75;;
64714;SDS011;51144;53.002;6.506;2022-08-20T12:05:33;5.88;;;0.85;;
64714;SDS011;51144;53.002;6.506;2022-08-20T12:07:59;5.18;;;0.95;;
64714;SDS011;51144;53.002;6.506;2022-08-20T12:10:25;3.00;;;0.38;;
64714;SDS011;51144;53.002;6.506;2022-08-20T12:12:52;6.63;;;0.93;;
64714;SDS011;51144;53.002;6.506;2022-08-20T12:15:18;7.95;;;1.60;;
64714;SDS011;51144;53.002;6.506;2022-08-20T12:17:44;3.90;;;0.60;;
64714;SDS011;51144;53.002;6.506;2022-08-20T12:20:10;7.75;;;1.05;;
64714;SDS011;51144;53.002;6.506;2022-08-20T12:22:37;9.50;;;0.60;;
64714;SDS011;51144;53.002;6.506;2022-08-20T12:25:03;4.75;;;0.47;;
64714;SDS011;51144;53.002;6.506;2022-08-20T12:27:30;6.30;;;0.77;;
64714;SDS011;51144;53.002;6.506;2022-08-20T12:29:59;5.03;;;0.60;;
64714;SDS011;51144;53.002;6.506;2022-08-20T12:32:27;5.85;;;1.75;;
64714;SDS011;51144;53.002;6.506;2022-08-20T12:34:55;2.80;;;0.32;;
64714;SDS011;51144;53.002;6.506;2022-08-20T12:37:26;7.38;;;0.55;;
64714;SDS011;51144;53.002;6.506;2022-08-20T12:39:54;4.25;;;0.50;;
64714;SDS011;51144;53.002;6.506;2022-08-20T12:42:20;7.35;;;0.45;;
64714;SDS011;51144;53.002;6.506;2022-08-20T12:44:47;6.72;;;1.00;;
64714;SDS011;51144;53.002;6.506;2022-08-20T12:47:17;4.30;;;0.75;;
64714;SDS011;51144;53.002;6.506;2022-08-20T12:49:58;4.28;;;0.93;;
64714;SDS011;51144;53.002;6.506;2022-08-20T12:52:26;8.35;;;0.47;;
64714;SDS011;51144;53.002;6.506;2022-08-20T12:54:53;3.85;;;0.60;;
64714;SDS011;51144;53.002;6.506;2022-08-20T12:59:58;4.80;;;0.95;;
64714;SDS011;51144;53.002;6.506;2022-08-20T13:02:30;4.05;;;0.73;;
64714;SDS011;51144;53.002;6.506;2022-08-20T13:05:01;3.90;;;0.82;;
64714;SDS011;51144;53.002;6.506;2022-08-20T13:07:27;7.20;;;0.77;;
64714;SDS011;51144;53.002;6.506;2022-08-20T13:09:53;4.68;;;0.88;;
64714;SDS011;51144;53.002;6.506;2022-08-20T13:12:18;6.70;;;0.40;;
64714;SDS011;51144;53.002;6.506;2022-08-20T13:14:44;3.58;;;0.35;;
64714;SDS011;51144;53.002;6.506;2022-08-20T13:17:10;2.65;;;0.30;;
64714;SDS011;51144;53.002;6.506;2022-08-20T13:19:36;7.22;;;0.75;;
64714;SDS011;51144;53.002;6.506;2022-08-20T13:22:02;3.72;;;0.50;;
64714;SDS011;51144;53.002;6.506;2022-08-20T13:24:31;5.43;;;0.70;;
64714;SDS011;51144;53.002;6.506;2022-08-20T13:27:08;3.33;;;0.57;;
64714;SDS011;51144;53.002;6.506;2022-08-20T13:29:34;4.85;;;0.30;;
64714;SDS011;51144;53.002;6.506;2022-08-20T13:31:59;4.85;;;0.40;;
64714;SDS011;51144;53.002;6.506;2022-08-20T13:34:26;8.55;;;0.82;;
64714;SDS011;51144;53.002;6.506;2022-08-20T13:36:51;4.55;;;0.60;;
64714;SDS011;51144;53.002;6.506;2022-08-20T13:39:19;7.50;;;1.10;;
64714;SDS011;51144;53.002;6.506;2022-08-20T13:41:45;4.25;;;0.43;;
64714;SDS011;51144;53.002;6.506;2022-08-20T13:44:10;6.03;;;0.43;;
64714;SDS011;51144;53.002;6.506;2022-08-20T13:46:36;5.32;;;0.80;;
64714;SDS011;51144;53.002;6.506;2022-08-20T13:49:04;5.80;;;0.73;;
64714;SDS011;51144;53.002;6.506;2022-08-20T13:51:30;6.30;;;0.85;;
64714;SDS011;51144;53.002;6.506;2022-08-20T13:53:55;5.85;;;0.57;;
64714;SDS011;51144;53.002;6.506;2022-08-20T13:56:21;6.75;;;0.55;;
64714;SDS011;51144;53.002;6.506;2022-08-20T13:58:47;11.30;;;1.88;;
64714;SDS011;51144;53.002;6.506;2022-08-20T14:01:12;5.38;;;0.50;;
64714;SDS011;51144;53.002;6.506;2022-08-20T14:03:38;3.90;;;0.57;;
64714;SDS011;51144;53.002;6.506;2022-08-20T14:06:04;3.78;;;0.82;;
64714;SDS011;51144;53.002;6.506;2022-08-20T14:08:31;6.50;;;0.65;;
64714;SDS011;51144;53.002;6.506;2022-08-20T14:10:56;2.97;;;0.35;;
64714;SDS011;51144;53.002;6.506;2022-08-20T14:13:24;3.53;;;0.75;;
64714;SDS011;51144;53.002;6.506;2022-08-20T14:15:50;5.43;;;0.50;;
64714;SDS011;51144;53.002;6.506;2022-08-20T14:18:17;5.40;;;0.73;;
64714;SDS011;51144;53.002;6.506;2022-08-20T14:20:43;7.35;;;0.73;;
64714;SDS011;51144;53.002;6.506;2022-08-20T14:23:09;4.15;;;0.77;;
64714;SDS011;51144;53.002;6.506;2022-08-20T14:25:37;5.25;;;0.63;;
64714;SDS011;51144;53.002;6.506;2022-08-20T14:28:10;5.35;;;0.65;;
64714;SDS011;51144;53.002;6.506;2022-08-20T14:30:41;4.85;;;0.35;;
64714;SDS011;51144;53.002;6.506;2022-08-20T14:33:07;4.97;;;1.05;;
64714;SDS011;51144;53.002;6.506;2022-08-20T14:35:33;3.88;;;0.55;;
64714;SDS011;51144;53.002;6.506;2022-08-20T14:37:58;7.00;;;1.75;;
64714;SDS011;51144;53.002;6.506;2022-08-20T14:40:24;4.55;;;0.60;;
64714;SDS011;51144;53.002;6.506;2022-08-20T14:42:51;8.07;;;0.88;;
64714;SDS011;51144;53.002;6.506;2022-08-20T14:45:17;4.57;;;0.30;;
64714;SDS011;51144;53.002;6.506;2022-08-20T14:47:44;6.22;;;0.80;;
64714;SDS011;51144;53.002;6.506;2022-08-20T14:50:16;6.55;;;0.40;;
64714;SDS011;51144;53.002;6.506;2022-08-20T14:52:45;5.07;;;0.77;;